Time;durP1;ratioP1;P1;durP2;ratioP2;P2;SDS_P1;SDS_P2;PMS_P1;PMS_P2;Temp;Humidity;BMP_temperature;BMP_pressure;BME280_temperature;BME280_humidity;BME280_pressure;Samples;Min_cycle;Max_cycle;Signal;HPM_P1;HPM_P2
2021/12/10 00:01:14;;;;;;;11.73;2.87;;;3.30;99.90;;;3.72;100.00;96659.31;5012573;28;20904;-82
2021/12/10 00:03:47;;;;;;;14.77;3.03;;;3.30;99.90;;;3.75;100.00;96653.81;5002842;28;20482;-83
2021/12/10 00:06:21;;;;;;;10.13;2.67;;;3.20;99.90;;;3.76;100.00;96648.44;5005538;28;20479;-82
2021/12/10 00:08:59;;;;;;;4.30;2.10;;;3.20;99.90;;;3.78;100.00;96648.28;5008519;28;20472;-82
2021/12/10 00:11:38;;;;;;;4.37;2.30;;;3.30;99.90;;;3.75;100.00;96639.09;5006215;28;20519;-82
2021/12/10 00:14:08;;;;;;;11.13;2.00;;;3.20;99.90;;;3.78;100.00;96635.38;5008259;28;20895;-82
2021/12/10 00:16:39;;;;;;;9.60;2.50;;;3.10;99.90;;;3.79;100.00;96624.81;5005969;28;20477;-82
2021/12/10 00:19:19;;;;;;;14.97;2.23;;;3.10;99.90;;;3.83;100.00;96612.34;5010350;28;20559;-83
2021/12/10 00:21:49;;;;;;;6.70;2.43;;;3.20;99.90;;;3.84;100.00;96611.38;5018872;28;20544;-82
2021/12/10 00:24:17;;;;;;;5.07;2.40;;;3.20;99.90;;;3.84;100.00;96601.84;5010673;28;20491;-82
2021/12/10 00:26:47;;;;;;;9.77;2.37;;;3.40;99.90;;;3.83;100.00;96592.47;5004529;28;20505;-82
2021/12/10 00:29:18;;;;;;;5.57;2.83;;;3.20;99.90;;;3.84;100.00;96586.31;5009493;28;20523;-82
2021/12/10 00:31:52;;;;;;;10.87;2.60;;;3.20;99.90;;;3.85;100.00;96577.56;5010831;28;20511;-81
2021/12/10 00:34:30;;;;;;;4.07;1.93;;;3.20;99.90;;;3.87;100.00;96567.06;5007409;28;20469;-82
2021/12/10 00:37:04;;;;;;;8.43;2.63;;;3.30;99.90;;;3.86;100.00;96561.06;5006299;28;20505;-82
2021/12/10 00:39:40;;;;;;;9.80;2.33;;;3.30;99.90;;;3.87;100.00;96547.19;5009874;28;20547;-82
2021/12/10 00:42:15;;;;;;;6.57;2.40;;;3.20;99.90;;;3.88;100.00;96553.97;5007959;28;21233;-82
2021/12/10 00:44:46;;;;;;;14.87;2.67;;;3.30;99.90;;;3.90;100.00;96551.97;4995863;28;20517;-82
2021/12/10 00:47:15;;;;;;;13.40;2.97;;;3.40;99.90;;;3.87;100.00;96543.78;5036227;28;20890;-82
2021/12/10 00:49:45;;;;;;;13.83;3.83;;;3.30;99.90;;;3.82;100.00;96539.16;5008167;28;21213;-82
2021/12/10 00:52:16;;;;;;;9.40;2.80;;;3.20;99.90;;;3.87;100.00;96538.63;5007632;28;20820;-82
2021/12/10 00:54:45;;;;;;;4.80;2.57;;;3.30;99.90;;;3.87;100.00;96541.19;5008485;28;20563;-82
2021/12/10 00:57:16;;;;;;;4.20;2.40;;;3.30;99.90;;;3.89;100.00;96529.69;5005741;28;20461;-82
2021/12/10 00:59:48;;;;;;;8.20;2.70;;;3.40;99.90;;;3.88;100.00;96522.13;5008968;28;20472;-82
2021/12/10 01:02:22;;;;;;;6.40;2.23;;;3.40;99.90;;;3.86;100.00;96508.56;5005623;28;20501;-82
2021/12/10 01:04:55;;;;;;;10.63;2.73;;;3.30;99.90;;;3.89;100.00;96503.03;5009272;28;20938;-82
2021/12/10 01:07:30;;;;;;;13.77;3.07;;;3.20;99.90;;;3.89;100.00;96492.69;5005417;28;20528;-82
2021/12/10 01:10:03;;;;;;;4.20;2.50;;;3.20;99.90;;;3.88;100.00;96478.19;4999614;28;20971;-82
2021/12/10 01:12:42;;;;;;;6.40;2.60;;;3.30;99.90;;;3.87;100.00;96473.97;5009570;28;20500;-82
2021/12/10 01:15:40;;;;;;;4.90;2.00;;;3.30;99.90;;;3.82;100.00;96471.94;5007986;28;20469;-82
2021/12/10 01:23:53;;;;;;;9.60;2.77;;;3.30;99.90;;;3.80;100.00;96460.19;5004040;28;20472;-82
2021/12/10 01:26:55;;;;;;;8.73;2.27;;;3.40;99.90;;;3.74;100.00;96450.59;5005457;28;20853;-82
2021/12/10 01:29:32;;;;;;;6.63;2.00;;;3.30;99.90;;;3.76;100.00;96446.03;5002242;28;20545;-82
2021/12/10 01:32:05;;;;;;;9.10;2.60;;;3.20;99.90;;;3.78;100.00;96438.91;5006557;28;21607;-82
2021/12/10 01:34:34;;;;;;;3.10;1.80;;;3.20;99.90;;;3.78;100.00;96434.53;5006032;28;20503;-82
2021/12/10 01:37:04;;;;;;;9.17;2.70;;;3.10;99.90;;;3.78;100.00;96428.56;5006420;28;20470;-81
2021/12/10 01:39:37;;;;;;;4.23;2.33;;;3.10;99.90;;;3.78;100.00;96428.56;5003638;28;20480;-82
2021/12/10 01:42:19;;;;;;;8.23;1.63;;;3.00;99.90;;;3.79;100.00;96420.63;5006643;28;20567;-82
2021/12/10 01:44:54;;;;;;;7.90;2.60;;;3.10;99.90;;;3.79;100.00;96414.63;5005629;28;21007;-82
2021/12/10 01:47:28;;;;;;;5.97;2.30;;;3.20;99.90;;;3.80;100.00;96409.28;5006344;28;20490;-82
2021/12/10 01:49:57;;;;;;;4.60;2.20;;;3.20;99.90;;;3.82;100.00;96404.72;5001890;28;21192;-82
2021/12/10 01:52:27;;;;;;;5.13;2.70;;;3.20;99.90;;;3.83;100.00;96405.53;5004566;28;20472;-82
2021/12/10 01:55:02;;;;;;;8.77;2.23;;;3.20;99.90;;;3.82;100.00;96401.34;5008752;28;20451;-82
2021/12/10 01:57:35;;;;;;;4.93;2.17;;;3.30;99.90;;;3.78;100.00;96403.53;5008893;28;20967;-82
2021/12/10 02:00:11;;;;;;;5.83;2.50;;;3.40;99.90;;;3.78;100.00;96398.34;5001470;28;20948;-82
2021/12/10 02:02:44;;;;;;;10.20;2.53;;;3.30;99.90;;;3.78;100.00;96394.97;4996790;28;20537;-82
2021/12/10 02:05:14;;;;;;;6.00;2.23;;;3.30;99.90;;;3.79;100.00;96375.88;5008604;28;20867;-83
2021/12/10 02:07:44;;;;;;;9.30;2.37;;;3.20;99.90;;;3.81;100.00;96385.06;5003188;28;20464;-82
2021/12/10 02:10:18;;;;;;;6.00;2.53;;;3.20;99.90;;;3.82;100.00;96376.28;5000275;28;20518;-82
2021/12/10 02:12:47;;;;;;;10.23;2.60;;;3.20;99.90;;;3.80;100.00;96367.94;5008416;28;20500;-82
2021/12/10 02:15:21;;;;;;;12.60;2.33;;;3.30;99.90;;;3.82;100.00;96357.41;5023523;28;20466;-82
2021/12/10 02:17:51;;;;;;;6.23;2.80;;;3.20;99.90;;;3.81;100.00;96351.47;5009122;28;20980;-82
2021/12/10 02:20:25;;;;;;;4.30;2.40;;;3.20;99.90;;;3.78;100.00;96340.69;5006607;28;20450;-83
2021/12/10 02:22:56;;;;;;;4.40;2.17;;;3.30;99.90;;;3.78;100.00;96328.56;5006236;28;20539;-82
2021/12/10 02:25:30;;;;;;;7.23;2.17;;;3.30;99.90;;;3.75;100.00;96328.13;5001960;28;20534;-82
2021/12/10 02:28:00;;;;;;;4.70;2.63;;;3.20;99.90;;;3.77;100.00;96326.16;5008506;28;20503;-82
2021/12/10 02:30:30;;;;;;;14.37;2.80;;;3.30;99.90;;;3.76;100.00;96316.78;5009455;28;20550;-83
2021/12/10 02:33:00;;;;;;;4.33;2.60;;;3.20;99.90;;;3.79;100.00;96308.66;5002635;28;20499;-82
2021/12/10 02:35:30;;;;;;;3.83;2.17;;;3.30;99.90;;;3.75;100.00;96299.72;5008657;28;20462;-82
2021/12/10 02:38:00;;;;;;;7.50;2.27;;;3.40;99.90;;;3.71;100.00;96293.31;5010008;28;20834;-82
2021/12/10 02:40:32;;;;;;;3.10;1.90;;;3.20;99.90;;;3.74;100.00;96293.75;5012669;28;20455;-82
2021/12/10 02:43:07;;;;;;;4.40;1.87;;;3.30;99.90;;;3.73;100.00;96292.13;5009585;28;21103;-82
2021/12/10 02:45:38;;;;;;;7.03;2.03;;;3.20;99.90;;;3.74;100.00;96292.94;5001882;28;20923;-82
2021/12/10 02:48:08;;;;;;;6.27;1.77;;;3.10;99.90;;;3.75;100.00;96286.78;5009839;28;20994;-82
2021/12/10 02:50:39;;;;;;;6.00;1.80;;;3.20;99.90;;;3.76;100.00;96275.44;5009846;28;20488;-82
2021/12/10 02:53:10;;;;;;;3.30;1.97;;;3.30;99.90;;;3.74;100.00;96269.66;5008468;28;20487;-82
2021/12/10 02:55:39;;;;;;;5.50;2.30;;;3.20;99.90;;;3.76;100.00;96272.84;5022356;28;20894;-83
2021/12/10 02:58:14;;;;;;;10.47;2.53;;;3.20;99.90;;;3.75;100.00;96273.88;5011557;28;20558;-82
2021/12/10 03:00:51;;;;;;;3.97;1.90;;;3.20;99.90;;;3.74;100.00;96261.91;5023590;28;20490;-82
2021/12/10 03:03:20;;;;;;;10.80;2.20;;;3.10;99.90;;;3.74;100.00;96260.13;5006563;28;20972;-83
2021/12/10 03:05:49;;;;;;;3.90;2.33;;;3.10;99.90;;;3.76;100.00;96254.75;5041046;28;20457;-82
2021/12/10 03:08:20;;;;;;;5.20;2.03;;;3.20;99.90;;;3.75;100.00;96253.97;5011755;28;20896;-82
2021/12/10 03:10:50;;;;;;;7.37;1.90;;;3.20;99.90;;;3.73;100.00;96249.97;5013706;28;20472;-82
2021/12/10 03:13:20;;;;;;;8.00;2.07;;;3.20;99.90;;;3.72;100.00;96249.16;5011679;28;20524;-82
2021/12/10 03:15:51;;;;;;;4.67;2.17;;;3.10;99.90;;;3.73;100.00;96255.16;5011793;28;20468;-82
2021/12/10 03:18:21;;;;;;;10.73;1.90;;;3.10;99.90;;;3.73;100.00;96250.78;5011632;28;21019;-82
2021/12/10 03:20:50;;;;;;;6.73;1.90;;;3.20;99.90;;;3.70;100.00;96240.81;5010751;28;20475;-82
2021/12/10 03:23:21;;;;;;;3.33;1.83;;;3.20;99.90;;;3.69;100.00;96238.41;5009094;28;20643;-82
2021/12/10 03:25:49;;;;;;;5.70;2.10;;;3.20;99.90;;;3.70;100.00;96234.84;5007793;28;20485;-82
2021/12/10 03:28:19;;;;;;;17.33;2.20;;;3.10;99.90;;;3.69;100.00;96233.25;5015322;28;20456;-82
2021/12/10 03:30:53;;;;;;;5.63;2.20;;;3.00;99.90;;;3.72;100.00;96227.69;5007595;28;20500;-81
2021/12/10 03:33:22;;;;;;;8.33;1.90;;;3.00;99.90;;;3.72;100.00;96225.91;5006083;28;20546;-82
2021/12/10 03:35:52;;;;;;;4.63;1.87;;;3.10;99.90;;;3.72;100.00;96222.53;5004793;28;20473;-82
2021/12/10 03:38:26;;;;;;;4.87;1.93;;;3.00;99.90;;;3.70;100.00;96214.19;5005763;28;20499;-82
2021/12/10 03:40:55;;;;;;;3.90;1.97;;;3.00;99.90;;;3.67;100.00;96202.44;5003771;28;20559;-81
2021/12/10 03:43:24;;;;;;;7.17;2.00;;;3.00;99.90;;;3.66;100.00;96200.03;5009697;28;20554;-82
2021/12/10 03:45:59;;;;;;;4.13;1.63;;;3.00;99.90;;;3.65;100.00;96199.22;5007683;28;20552;-82
2021/12/10 03:48:31;;;;;;;15.13;2.20;;;3.00;99.90;;;3.62;100.00;96191.84;5006358;28;20477;-82
2021/12/10 03:51:05;;;;;;;7.40;2.10;;;2.80;99.90;;;3.59;100.00;96184.50;5009483;28;20488;-82
2021/12/10 03:53:36;;;;;;;2.53;2.03;;;2.80;99.90;;;3.58;100.00;96182.09;5001816;28;20489;-83
2021/12/10 03:56:09;;;;;;;8.60;2.57;;;2.70;99.90;;;3.49;100.00;96182.25;5009704;28;20522;-82
2021/12/10 03:58:39;;;;;;;7.20;2.13;;;2.60;99.90;;;3.46;100.00;96176.66;5003070;28;20577;-82
2021/12/10 04:01:14;;;;;;;4.43;2.07;;;2.60;99.90;;;3.41;100.00;96179.81;5009025;28;20477;-82
2021/12/10 04:03:44;;;;;;;8.40;2.27;;;2.50;99.90;;;3.38;100.00;96172.44;5008647;28;20505;-82
2021/12/10 04:06:14;;;;;;;3.60;1.70;;;2.50;99.90;;;3.35;100.00;96167.66;5008588;28;20506;-81
2021/12/10 04:08:45;;;;;;;7.47;2.00;;;2.60;99.90;;;3.32;100.00;96159.47;5007991;28;20879;-82
2021/12/10 04:11:15;;;;;;;9.97;2.03;;;2.50;99.90;;;3.28;100.00;96164.22;5009143;28;20522;-82
2021/12/10 04:13:46;;;;;;;5.80;1.73;;;2.40;99.90;;;3.20;100.00;96160.97;5039557;28;20452;-82
2021/12/10 04:16:17;;;;;;;2.50;2.27;;;2.40;99.90;;;3.14;100.00;96159.94;5010789;28;21046;-82
2021/12/10 04:18:49;;;;;;;3.67;1.87;;;2.40;99.90;;;3.10;100.00;96158.72;5039927;28;20519;-82
2021/12/10 04:21:19;;;;;;;8.70;1.70;;;2.30;99.90;;;3.04;100.00;96149.94;5008419;28;20477;-82
2021/12/10 04:23:51;;;;;;;6.80;2.10;;;2.20;99.90;;;3.01;100.00;96149.50;5004821;28;20514;-82
2021/12/10 04:26:24;;;;;;;11.90;2.30;;;2.20;99.90;;;2.98;100.00;96142.16;5004447;28;20524;-82
2021/12/10 04:28:54;;;;;;;7.03;2.20;;;2.20;99.90;;;2.92;100.00;96129.97;5010556;28;20455;-82
2021/12/10 04:31:23;;;;;;;5.20;1.70;;;2.10;99.90;;;2.89;100.00;96122.59;5006539;28;20533;-82
2021/12/10 04:33:52;;;;;;;3.10;1.70;;;2.10;99.90;;;2.83;100.00;96121.56;4998779;28;20454;-83
2021/12/10 04:36:21;;;;;;;8.30;2.37;;;2.00;99.90;;;2.81;100.00;96120.19;5010332;28;20495;-82
2021/12/10 04:38:51;;;;;;;8.37;1.73;;;2.00;99.90;;;2.78;100.00;96105.03;5021329;28;20544;-81
2021/12/10 04:41:20;;;;;;;12.80;2.13;;;2.00;99.90;;;2.73;100.00;96102.25;5006975;28;20464;-82
2021/12/10 04:43:50;;;;;;;3.10;1.70;;;2.00;99.90;;;2.70;100.00;96095.69;5003028;28;20494;-81
2021/12/10 04:46:19;;;;;;;3.00;1.93;;;1.90;99.90;;;2.61;100.00;96098.53;5005579;28;20855;-82
2021/12/10 04:48:58;;;;;;;5.80;1.83;;;1.70;99.90;;;2.61;100.00;96090.81;5004595;28;20517;-84
2021/12/10 04:51:31;;;;;;;2.67;1.70;;;1.80;99.90;;;2.52;100.00;96082.41;5006157;28;20554;-82
2021/12/10 04:54:02;;;;;;;2.70;1.80;;;1.50;99.90;;;2.54;100.00;96085.59;5007635;28;20835;-80
2021/12/10 04:56:31;;;;;;;4.33;2.13;;;1.60;99.90;;;2.52;100.00;96072.91;5008987;28;20669;-80
2021/12/10 04:59:04;;;;;;;3.43;1.87;;;1.70;99.90;;;2.50;100.00;96066.31;5007858;28;20487;-80
2021/12/10 05:01:34;;;;;;;9.50;2.10;;;1.70;99.90;;;2.47;100.00;96057.16;5007913;28;20459;-80
2021/12/10 05:04:06;;;;;;;4.67;1.67;;;1.80;99.90;;;2.45;100.00;96055.78;5008186;28;20498;-80
2021/12/10 05:06:35;;;;;;;3.03;1.60;;;1.70;99.90;;;2.38;100.00;96045.41;5007246;28;20986;-79
2021/12/10 05:09:10;;;;;;;21.97;8.40;;;1.60;99.90;;;2.37;100.00;96036.06;5009406;28;20459;-80
2021/12/10 05:11:39;;;;;;;6.03;1.80;;;1.60;99.90;;;2.37;100.00;96030.91;5008711;28;20898;-77
2021/12/10 05:14:09;;;;;;;5.73;2.10;;;1.70;99.90;;;2.41;100.00;96026.19;5004543;28;20500;-79
2021/12/10 05:16:44;;;;;;;6.80;1.90;;;1.60;99.90;;;2.34;100.00;96020.97;5009516;28;20516;-78
2021/12/10 05:19:15;;;;;;;4.50;1.57;;;1.60;99.90;;;2.33;100.00;96015.97;5007695;28;20868;-78
2021/12/10 05:21:46;;;;;;;6.40;3.00;;;1.60;99.90;;;2.29;100.00;96014.78;5011827;28;20462;-78
2021/12/10 05:24:17;;;;;;;6.93;1.60;;;1.50;99.90;;;2.27;100.00;96012.38;5009555;28;21000;-78
2021/12/10 05:26:47;;;;;;;8.37;2.43;;;1.50;99.90;;;2.26;100.00;96015.13;5010040;28;20508;-77
2021/12/10 05:29:16;;;;;;;18.63;2.17;;;1.40;99.90;;;2.15;100.00;96010.50;5004954;28;20458;-78
2021/12/10 05:31:46;;;;;;;6.63;2.03;;;1.30;99.90;;;2.09;100.00;96001.69;5011426;28;20548;-78
2021/12/10 05:34:16;;;;;;;8.10;1.80;;;1.30;99.90;;;2.07;100.00;95993.38;5011805;28;20485;-78
2021/12/10 05:36:45;;;;;;;6.77;1.97;;;1.30;99.90;;;2.05;100.00;95985.00;5012008;28;20570;-78
2021/12/10 05:39:22;;;;;;;7.73;2.73;;;1.20;99.90;;;2.05;100.00;95984.22;5010930;28;20497;-78
2021/12/10 05:41:52;;;;;;;6.53;1.90;;;1.30;99.90;;;1.94;100.00;95978.56;5011755;28;20966;-78
2021/12/10 05:44:21;;;;;;;7.63;2.00;;;1.10;99.90;;;1.96;100.00;95983.56;5008005;28;20532;-78
2021/12/10 05:46:50;;;;;;;4.33;1.83;;;1.20;99.90;;;1.97;100.00;95967.13;5008778;28;20488;-78
2021/12/10 05:49:18;;;;;;;4.10;1.70;;;1.20;99.90;;;1.94;100.00;95962.34;5011586;28;20485;-78
2021/12/10 05:51:47;;;;;;;3.93;1.50;;;1.10;99.90;;;1.93;100.00;95955.56;5011651;28;20844;-78
2021/12/10 05:54:18;;;;;;;5.23;1.97;;;1.10;99.90;;;1.93;100.00;95953.00;5004546;28;20488;-78
2021/12/10 05:56:47;;;;;;;4.10;2.17;;;1.10;99.90;;;1.91;100.00;95963.47;5010829;28;20515;-78
2021/12/10 05:59:16;;;;;;;5.13;2.00;;;1.10;99.90;;;1.90;100.00;95953.38;5006991;28;20496;-78
2021/12/10 06:01:45;;;;;;;5.07;2.17;;;1.00;99.90;;;1.85;100.00;95948.75;5010963;28;20514;-78
2021/12/10 06:04:13;;;;;;;2.20;1.67;;;1.00;99.90;;;1.86;100.00;95939.25;5008638;28;20484;-78
2021/12/10 06:06:42;;;;;;;2.60;1.40;;;1.10;99.90;;;1.88;100.00;95934.72;5010839;28;20481;-78
2021/12/10 06:09:11;;;;;;;8.60;2.10;;;1.10;99.90;;;1.88;100.00;95938.09;5011285;28;20477;-78
2021/12/10 06:11:41;;;;;;;1.93;1.50;;;1.20;99.90;;;1.90;100.00;95935.34;5007332;28;20856;-78
2021/12/10 06:14:09;;;;;;;7.23;2.30;;;1.20;99.90;;;1.88;100.00;95930.34;5011136;28;20467;-78
2021/12/10 06:16:38;;;;;;;5.60;2.40;;;1.20;99.90;;;1.90;100.00;95925.03;5007359;28;21008;-78
2021/12/10 06:19:09;;;;;;;5.63;2.43;;;1.20;99.90;;;1.90;100.00;95925.03;5010953;28;20475;-78
2021/12/10 06:21:39;;;;;;;13.13;2.20;;;1.20;99.90;;;1.94;100.00;95923.69;5011091;28;20569;-78
2021/12/10 06:24:08;;;;;;;5.67;2.10;;;1.30;99.90;;;1.96;100.00;95919.13;5010910;28;20463;-78
2021/12/10 06:26:37;;;;;;;8.27;2.00;;;1.30;99.90;;;1.97;100.00;95915.56;5011333;28;20454;-78
2021/12/10 06:29:07;;;;;;;6.97;2.00;;;1.30;99.90;;;1.99;100.00;95911.03;5010787;28;20451;-78
2021/12/10 06:31:38;;;;;;;4.33;2.10;;;1.30;99.90;;;1.99;100.00;95913.59;5011628;28;20501;-78
2021/12/10 06:34:11;;;;;;;3.90;2.13;;;1.30;99.90;;;1.98;100.00;95906.84;5007917;28;20867;-78
2021/12/10 06:36:40;;;;;;;5.03;2.07;;;1.30;99.90;;;1.98;100.00;95906.84;5010510;28;20504;-78
2021/12/10 06:39:10;;;;;;;7.93;2.03;;;1.20;99.90;;;2.02;100.00;95897.75;5010422;28;20502;-78
2021/12/10 06:41:39;;;;;;;3.80;2.03;;;1.30;99.90;;;2.03;100.00;95899.38;5011208;28;20489;-78
2021/12/10 06:44:09;;;;;;;13.10;2.70;;;1.30;99.90;;;2.06;100.00;95891.25;5010484;28;20994;-78
2021/12/10 06:46:37;;;;;;;2.70;1.80;;;1.40;99.90;;;2.05;100.00;95892.22;5010679;28;20493;-78
2021/12/10 06:49:06;;;;;;;3.43;2.37;;;1.30;99.90;;;2.08;100.00;95891.88;5010364;28;20448;-78
2021/12/10 06:51:35;;;;;;;11.00;2.27;;;1.40;99.90;;;2.09;100.00;95888.28;5010818;28;20453;-78
2021/12/10 06:54:04;;;;;;;15.27;2.03;;;1.50;99.90;;;2.09;100.00;95893.44;5010655;28;21015;-78
2021/12/10 06:56:35;;;;;;;7.90;2.00;;;1.50;99.90;;;2.09;100.00;95883.16;5010344;28;20449;-78
2021/12/10 06:59:09;;;;;;;6.10;2.23;;;1.40;99.90;;;2.10;100.00;95879.59;5010728;28;20491;-78
2021/12/10 07:01:41;;;;;;;4.60;2.50;;;1.40;99.90;;;2.11;100.00;95886.34;5010445;28;20444;-79
2021/12/10 07:04:16;;;;;;;4.33;2.27;;;1.50;99.90;;;2.13;100.00;95879.22;5008598;28;20461;-78
2021/12/10 07:06:47;;;;;;;8.13;2.23;;;1.50;99.90;;;2.09;100.00;95879.75;5004817;28;20484;-78
2021/12/10 07:09:22;;;;;;;6.40;2.10;;;1.40;99.90;;;2.08;100.00;95881.56;5009067;28;20474;-78
2021/12/10 07:11:54;;;;;;;4.20;2.60;;;1.50;99.90;;;2.10;100.00;95884.75;5009729;28;20469;-78
2021/12/10 07:14:24;;;;;;;5.23;2.10;;;1.40;99.90;;;2.11;100.00;95883.78;5010420;28;20898;-78
2021/12/10 07:16:53;;;;;;;9.97;2.33;;;1.40;99.90;;;2.09;100.00;95884.91;5008690;28;20451;-78
2021/12/10 07:19:21;;;;;;;7.87;2.40;;;1.50;99.90;;;2.08;100.00;95888.50;5010205;28;20496;-78
2021/12/10 07:21:50;;;;;;;7.37;2.27;;;1.50;99.90;;;2.05;100.00;95881.91;5010668;28;20484;-78
2021/12/10 07:24:19;;;;;;;7.63;2.00;;;1.40;99.90;;;2.01;100.00;95886.66;5012017;28;20470;-78
2021/12/10 07:26:49;;;;;;;5.07;2.03;;;1.50;99.90;;;2.02;100.00;95890.03;5014158;28;20553;-78
2021/12/10 07:29:21;;;;;;;4.43;2.10;;;1.40;99.90;;;2.01;100.00;95886.66;5010313;28;20492;-78
2021/12/10 07:31:51;;;;;;;7.03;2.17;;;1.40;99.90;;;2.01;100.00;95880.72;5018138;28;20472;-78
2021/12/10 07:34:19;;;;;;;2.53;1.90;;;1.40;99.90;;;2.02;100.00;95882.28;5014064;28;20471;-78
2021/12/10 07:36:48;;;;;;;4.40;1.57;;;1.40;99.90;;;2.00;100.00;95876.53;5013847;28;20450;-77
2021/12/10 07:39:16;;;;;;;2.70;1.53;;;1.40;99.90;;;1.99;100.00;95873.16;5012746;28;20446;-78
2021/12/10 07:41:45;;;;;;;7.77;2.60;;;1.30;99.90;;;2.03;100.00;95873.59;5011393;28;20530;-78
2021/12/10 07:44:14;;;;;;;2.77;1.63;;;1.30;99.90;;;2.07;100.00;95859.34;5013759;28;20574;-78
2021/12/10 07:46:43;;;;;;;4.40;1.93;;;1.40;99.90;;;2.10;100.00;95863.31;5013670;28;20522;-78
2021/12/10 07:49:16;;;;;;;5.60;2.10;;;1.40;99.90;;;2.11;100.00;95863.16;5013601;28;20449;-77
2021/12/10 07:51:49;;;;;;;4.20;1.90;;;1.50;99.90;;;2.14;100.00;95865.34;5013909;28;20447;-77
2021/12/10 07:54:18;;;;;;;1.83;1.63;;;1.50;99.90;;;2.17;100.00;95849.50;5013720;28;20440;-78
2021/12/10 07:56:54;;;;;;;4.90;1.80;;;1.60;99.90;;;2.21;100.00;95848.13;5013234;28;20910;-78
2021/12/10 07:59:24;;;;;;;4.60;1.63;;;1.60;99.90;;;2.21;100.00;95843.00;5011751;28;20445;-77
2021/12/10 08:01:53;;;;;;;2.87;1.47;;;1.60;99.90;;;2.23;100.00;95843.59;5013551;28;20716;-78
2021/12/10 08:04:23;;;;;;;9.20;1.97;;;1.60;99.90;;;2.23;100.00;95848.75;5013100;28;20441;-78
2021/12/10 08:06:53;;;;;;;3.87;1.50;;;1.60;99.90;;;2.26;100.00;95843.19;5013378;28;20505;-78
2021/12/10 08:09:22;;;;;;;4.37;2.00;;;1.60;99.90;;;2.30;100.00;95835.88;5013493;28;20499;-78
2021/12/10 08:11:52;;;;;;;4.10;1.70;;;1.70;99.90;;;2.27;100.00;95828.53;5012478;28;20957;-78
2021/12/10 08:14:22;;;;;;;9.00;1.60;;;1.60;99.90;;;2.33;100.00;95822.59;5011781;28;20458;-78
2021/12/10 08:16:53;;;;;;;6.33;2.00;;;1.70;99.90;;;2.35;100.00;95829.19;5012926;28;20480;-78
2021/12/10 08:19:24;;;;;;;4.17;1.43;;;1.70;99.90;;;2.35;100.00;95823.22;5008122;28;20458;-78
2021/12/10 08:21:54;;;;;;;5.87;1.60;;;1.60;99.90;;;2.36;100.00;95819.66;5007924;28;20948;-78
2021/12/10 08:24:24;;;;;;;9.83;1.90;;;1.60;99.90;;;2.41;100.00;95818.09;5013338;28;20844;-78
2021/12/10 08:26:54;;;;;;;4.23;1.27;;;1.70;99.90;;;2.42;100.00;95814.53;5012632;28;20526;-77
2021/12/10 08:29:25;;;;;;;10.23;1.47;;;1.70;99.90;;;2.43;100.00;95808.38;5013103;28;20489;-78
2021/12/10 08:31:55;;;;;;;2.33;1.40;;;1.80;99.90;;;2.45;100.00;95806.41;5009754;28;20466;-78
2021/12/10 08:34:27;;;;;;;6.37;1.60;;;1.80;99.90;;;2.47;100.00;95804.44;5012810;28;20477;-78
2021/12/10 08:36:57;;;;;;;2.70;1.60;;;1.80;99.90;;;2.52;100.00;95802.09;5011943;28;20478;-78
2021/12/10 08:39:28;;;;;;;5.90;2.10;;;1.90;99.90;;;2.56;100.00;95791.38;5012750;28;20468;-78
2021/12/10 08:41:58;;;;;;;3.73;1.80;;;1.90;99.90;;;2.59;100.00;95791.78;5012668;28;20443;-78
2021/12/10 08:44:28;;;;;;;7.33;1.63;;;2.00;99.90;;;2.60;100.00;95793.38;5012503;28;20843;-77
2021/12/10 08:46:58;;;;;;;4.10;1.83;;;1.90;99.90;;;2.63;100.00;95782.69;5012443;28;20497;-78
2021/12/10 08:49:30;;;;;;;2.73;1.60;;;2.00;99.90;;;2.63;100.00;95782.69;5012331;28;20923;-77
2021/12/10 08:52:00;;;;;;;2.10;1.50;;;1.90;99.90;;;2.61;100.00;95783.84;5011677;28;20983;-78
2021/12/10 08:54:33;;;;;;;7.93;1.90;;;1.90;99.90;;;2.62;100.00;95783.66;5007992;28;20491;-78
2021/12/10 08:57:04;;;;;;;6.07;1.33;;;2.00;99.90;;;2.61;100.00;95779.47;5006770;28;20491;-78
2021/12/10 08:59:36;;;;;;;1.37;1.27;;;1.90;99.90;;;2.63;100.00;95772.38;5012459;28;20827;-78
2021/12/10 09:02:14;;;;;;;4.60;1.73;;;1.90;99.90;;;2.69;100.00;95769.00;5012286;28;20469;-78
2021/12/10 09:04:47;;;;;;;4.40;1.37;;;2.00;99.90;;;2.74;100.00;95763.28;5012265;28;20532;-78
2021/12/10 09:07:20;;;;;;;1.90;1.53;;;2.10;99.90;;;2.76;100.00;95771.59;5012225;28;20498;-77
2021/12/10 09:09:51;;;;;;;7.13;1.53;;;2.10;99.90;;;2.79;100.00;95773.78;5007273;28;20455;-78
2021/12/10 09:12:25;;;;;;;3.43;1.30;;;2.10;99.90;;;2.77;100.00;95763.69;5005880;28;20471;-78
2021/12/10 09:14:56;;;;;;;6.03;1.50;;;2.10;99.90;;;2.82;100.00;95771.63;5012142;28;20469;-78
2021/12/10 09:17:30;;;;;;;4.70;1.70;;;2.10;99.90;;;2.83;100.00;95762.09;5012153;28;20826;-78
2021/12/10 09:20:10;;;;;;;1.63;1.40;;;2.10;99.90;;;2.86;100.00;95772.03;5010440;28;20450;-78
2021/12/10 09:22:41;;;;;;;4.47;1.70;;;2.10;99.90;;;2.90;100.00;95768.06;5011463;28;20500;-78
2021/12/10 09:25:12;;;;;;;1.23;1.13;;;2.30;99.90;;;2.89;100.00;95772.41;5011854;28;21029;-78
2021/12/10 09:27:43;;;;;;;2.97;1.37;;;2.20;99.90;;;2.92;100.00;95766.06;5011084;28;20504;-78
2021/12/10 09:30:20;;;;;;;3.83;1.40;;;2.20;99.90;;;2.90;100.00;95768.06;5009193;28;20451;-78
2021/12/10 09:32:50;;;;;;;2.90;1.30;;;2.30;99.90;;;2.94;100.00;95769.25;5017238;28;20850;-78
2021/12/10 09:35:26;;;;;;;2.10;1.17;;;2.40;99.90;;;2.96;100.00;95767.28;5011773;28;20456;-78
2021/12/10 09:37:56;;;;;;;2.57;1.53;;;2.40;99.90;;;2.96;100.00;95773.22;5009252;28;20481;-78
2021/12/10 09:40:30;;;;;;;11.10;1.30;;;2.40;99.90;;;2.94;100.00;95771.84;5011976;28;20928;-78
2021/12/10 09:42:59;;;;;;;3.57;1.60;;;2.30;99.90;;;2.94;100.00;95780.38;5011212;28;20820;-78
2021/12/10 09:45:34;;;;;;;1.93;1.10;;;2.20;99.90;;;2.94;100.00;95780.38;5010287;28;20464;-77
2021/12/10 09:48:08;;;;;;;2.90;1.10;;;2.20;99.90;;;2.87;100.00;95781.34;5011058;28;20499;-78
2021/12/10 09:50:47;;;;;;;2.87;1.30;;;2.20;99.90;;;2.88;100.00;95773.41;5011492;28;20984;-77
2021/12/10 09:53:18;;;;;;;4.17;1.50;;;2.20;99.90;;;2.94;100.00;95780.38;5011444;28;20450;-78
2021/12/10 09:55:51;;;;;;;1.77;1.10;;;2.30;99.90;;;2.92;100.00;95771.22;5010768;28;20443;-78
2021/12/10 09:58:22;;;;;;;4.93;1.70;;;2.20;99.90;;;2.95;100.00;95773.44;5011395;28;20552;-78
2021/12/10 10:00:59;;;;;;;3.90;1.70;;;2.30;99.90;;;2.97;100.00;95768.88;5011257;28;20896;-78
2021/12/10 10:03:33;;;;;;;2.37;1.23;;;2.30;99.90;;;2.97;100.00;95768.88;5011284;28;20987;-78
2021/12/10 10:06:06;;;;;;;7.60;1.40;;;2.40;99.90;;;2.99;100.00;95772.03;5011128;28;20447;-78
2021/12/10 10:08:39;;;;;;;4.37;1.90;;;2.50;99.90;;;2.96;100.00;95762.91;5011352;28;20463;-78
2021/12/10 10:11:17;;;;;;;2.27;1.30;;;2.50;99.90;;;2.99;100.00;95766.88;5010518;28;20457;-78
2021/12/10 10:13:50;;;;;;;2.90;1.33;;;2.40;99.90;;;2.99;100.00;95752.19;5007457;28;20451;-78
2021/12/10 10:16:23;;;;;;;2.53;1.30;;;2.40;99.90;;;3.00;100.00;95753.00;5011208;28;20451;-78
2021/12/10 10:18:53;;;;;;;3.27;1.53;;;2.50;99.90;;;3.01;100.00;95759.75;5010916;28;20522;-78
2021/12/10 10:21:32;;;;;;;5.63;1.83;;;2.40;99.90;;;3.04;100.00;95751.59;5011182;28;20944;-78
2021/12/10 10:24:03;;;;;;;3.30;1.30;;;2.50;99.90;;;3.03;100.00;95750.81;5010788;28;20541;-78
2021/12/10 10:26:37;;;;;;;3.17;1.43;;;2.50;99.90;;;3.00;100.00;95743.47;5008973;28;20519;-77
2021/12/10 10:29:13;;;;;;;2.17;1.23;;;2.50;99.90;;;2.99;100.00;95741.06;5011082;28;20518;-78
2021/12/10 10:31:50;;;;;;;3.60;1.30;;;2.50;99.90;;;3.01;100.00;95739.09;5010351;28;20473;-78
2021/12/10 10:34:23;;;;;;;8.30;1.77;;;2.50;99.90;;;2.98;100.00;95740.28;5010851;28;21013;-77
2021/12/10 10:36:57;;;;;;;3.53;1.87;;;2.40;99.90;;;2.97;100.00;95733.53;5010652;28;20450;-78
2021/12/10 10:39:33;;;;;;;1.23;1.13;;;2.40;99.90;;;2.96;100.00;95731.13;5011177;28;20455;-78
2021/12/10 10:42:11;;;;;;;2.13;1.50;;;2.30;99.90;;;2.94;100.00;95723.59;5010762;28;20814;-77
2021/12/10 10:44:57;;;;;;;3.63;1.47;;;2.30;99.90;;;2.89;100.00;95720.00;5006305;28;20503;-78
2021/12/10 10:47:27;;;;;;;5.80;1.50;;;2.20;99.90;;;2.91;100.00;95724.00;5010884;28;20495;-78
2021/12/10 10:50:03;;;;;;;4.70;1.60;;;2.30;99.90;;;2.89;100.00;95718.22;5010606;28;20537;-78